createdAt,value
2017-12-30T00:01:02.912Z,4.90
2017-12-30T00:02:13.675Z,5.30
2017-12-30T00:03:19.899Z,4.62
2017-12-30T00:04:28.215Z,4.55
2017-12-30T00:05:34.495Z,5.25
2017-12-30T00:06:40.839Z,4.47
2017-12-30T00:07:47.086Z,4.55
2017-12-30T00:08:53.372Z,4.30
2017-12-30T00:10:00.528Z,5.75
2017-12-30T00:11:06.911Z,5.00
2017-12-30T00:12:13.116Z,4.60
2017-12-30T00:13:19.335Z,4.80
2017-12-30T00:14:25.251Z,4.95
2017-12-30T00:15:31.488Z,4.53
2017-12-30T00:16:37.758Z,5.43
2017-12-30T00:17:44.034Z,4.65
2017-12-30T00:18:50.277Z,5.45
2017-12-30T00:19:59.482Z,4.80
2017-12-30T00:21:05.761Z,3.92
2017-12-30T00:22:12.021Z,4.25
2017-12-30T00:23:17.978Z,4.65
2017-12-30T00:24:24.235Z,3.80
2017-12-30T00:25:30.470Z,4.53
2017-12-30T00:26:36.681Z,5.10
2017-12-30T00:27:46.919Z,4.03
2017-12-30T00:28:53.178Z,4.40
2017-12-30T00:29:59.491Z,4.93
2017-12-30T00:31:05.672Z,4.70
2017-12-30T00:32:11.885Z,4.65
2017-12-30T00:33:18.126Z,4.15
2017-12-30T00:34:24.338Z,4.57
2017-12-30T00:35:30.542Z,4.22
2017-12-30T00:36:36.869Z,4.93
2017-12-30T00:37:43.135Z,4.53
2017-12-30T00:38:49.348Z,4.60
2017-12-30T00:39:55.543Z,5.10
2017-12-30T00:41:01.769Z,4.60
2017-12-30T00:42:08.070Z,4.28
2017-12-30T00:43:14.331Z,4.90
2017-12-30T00:44:20.515Z,4.78
2017-12-30T00:45:28.725Z,4.78
2017-12-30T00:46:34.922Z,4.43
2017-12-30T00:47:41.163Z,4.35
2017-12-30T00:48:47.314Z,4.28
2017-12-30T00:49:53.542Z,4.47
2017-12-30T00:50:59.767Z,4.90
2017-12-30T00:52:05.920Z,4.68
2017-12-30T00:53:12.099Z,3.78
2017-12-30T00:54:18.311Z,4.80
2017-12-30T00:55:24.522Z,4.97
2017-12-30T00:56:30.731Z,4.70
2017-12-30T00:57:36.945Z,4.15
2017-12-30T00:58:43.168Z,4.68
2017-12-30T00:59:52.224Z,5.07
2017-12-30T01:00:58.514Z,5.05
2017-12-30T01:02:04.695Z,4.60
2017-12-30T01:03:10.896Z,3.97
2017-12-30T01:04:17.089Z,4.00
2017-12-30T01:05:23.296Z,4.60
2017-12-30T01:06:29.506Z,4.45
2017-12-30T01:07:35.479Z,5.20
2017-12-30T01:08:41.703Z,4.45
2017-12-30T01:09:47.957Z,4.60
2017-12-30T01:10:54.143Z,4.55
2017-12-30T01:12:00.323Z,4.75
2017-12-30T01:13:06.514Z,4.47
2017-12-30T01:14:12.716Z,4.30
2017-12-30T01:15:18.955Z,4.60
2017-12-30T01:16:25.214Z,4.28
2017-12-30T01:17:31.460Z,4.32
2017-12-30T01:18:37.633Z,4.10
2017-12-30T01:19:43.829Z,4.37
2017-12-30T01:20:50.084Z,4.20
2017-12-30T01:21:56.237Z,4.50
2017-12-30T01:23:02.386Z,4.25
2017-12-30T01:24:08.787Z,4.78
2017-12-30T01:25:14.978Z,4.00
2017-12-30T01:26:21.151Z,4.30
2017-12-30T01:27:27.312Z,4.75
2017-12-30T01:28:33.364Z,4.40
2017-12-30T01:29:39.593Z,4.07
2017-12-30T01:30:45.765Z,3.87
2017-12-30T01:31:51.943Z,4.80
2017-12-30T01:32:58.099Z,4.05
2017-12-30T01:34:04.329Z,4.55
2017-12-30T01:35:10.501Z,4.70
2017-12-30T01:36:16.653Z,4.20
2017-12-30T01:37:22.889Z,3.80
2017-12-30T01:38:29.388Z,4.00
2017-12-30T01:39:35.566Z,4.07
2017-12-30T01:40:41.763Z,4.55
2017-12-30T01:41:48.012Z,4.37
2017-12-30T01:42:54.232Z,4.85
2017-12-30T01:44:00.445Z,4.03
2017-12-30T01:45:06.719Z,4.70
2017-12-30T01:46:12.942Z,4.07
2017-12-30T01:47:19.134Z,4.50
2017-12-30T01:48:25.347Z,4.30
2017-12-30T01:49:31.578Z,4.50
2017-12-30T01:50:37.753Z,3.95
2017-12-30T01:51:43.984Z,4.43
2017-12-30T01:52:50.153Z,3.85
2017-12-30T01:53:56.346Z,4.05
2017-12-30T01:55:02.530Z,4.43
2017-12-30T01:56:08.768Z,3.70
2017-12-30T01:57:14.969Z,4.65
2017-12-30T01:58:21.215Z,4.05
2017-12-30T01:59:27.447Z,3.67
2017-12-30T02:00:33.617Z,4.20
2017-12-30T02:01:38.534Z,3.97
2017-12-30T02:02:44.714Z,4.37
2017-12-30T02:03:50.935Z,4.00
2017-12-30T02:04:57.133Z,4.32
2017-12-30T02:06:03.481Z,4.72
2017-12-30T02:07:11.640Z,4.00
2017-12-30T02:08:17.885Z,4.55
2017-12-30T02:09:24.187Z,4.22
2017-12-30T02:10:30.371Z,4.97
2017-12-30T02:11:36.549Z,4.70
2017-12-30T02:12:42.747Z,4.47
2017-12-30T02:13:48.983Z,5.00
2017-12-30T02:14:55.218Z,4.50
2017-12-30T02:16:04.117Z,4.78
2017-12-30T02:17:10.336Z,5.45
2017-12-30T02:18:16.617Z,5.25
2017-12-30T02:19:22.836Z,5.12
2017-12-30T02:20:29.033Z,4.75
2017-12-30T02:21:34.553Z,4.57
2017-12-30T02:22:40.500Z,5.05
2017-12-30T02:23:47.670Z,4.70
2017-12-30T02:24:57.342Z,5.15
2017-12-30T02:26:03.583Z,4.78
2017-12-30T02:27:09.783Z,4.85
2017-12-30T02:28:15.973Z,4.78
2017-12-30T02:29:22.439Z,5.55
2017-12-30T02:30:28.637Z,5.45
2017-12-30T02:31:34.800Z,5.50
2017-12-30T02:32:40.989Z,5.20
2017-12-30T02:33:47.145Z,4.87
2017-12-30T02:34:53.389Z,5.32
2017-12-30T02:35:59.701Z,4.60
2017-12-30T02:37:05.852Z,4.50
2017-12-30T02:38:12.073Z,4.75
2017-12-30T02:39:18.264Z,5.30
2017-12-30T02:40:24.436Z,5.90
2017-12-30T02:41:30.645Z,4.70
2017-12-30T02:42:37.803Z,5.20
2017-12-30T02:43:44.027Z,4.62
2017-12-30T02:44:50.215Z,4.85
2017-12-30T02:45:56.403Z,4.15
2017-12-30T02:47:02.349Z,4.37
2017-12-30T02:48:08.626Z,4.60
2017-12-30T02:49:14.807Z,5.20
2017-12-30T02:50:21.014Z,5.47
2017-12-30T02:51:27.245Z,5.37
2017-12-30T02:52:33.436Z,5.03
2017-12-30T02:53:39.622Z,4.90
2017-12-30T02:54:45.825Z,5.60
2017-12-30T02:55:52.000Z,5.10
2017-12-30T02:57:02.123Z,4.60
2017-12-30T02:58:08.475Z,5.25
2017-12-30T02:59:14.674Z,5.22
2017-12-30T03:00:20.858Z,5.28
2017-12-30T03:01:26.811Z,4.72
2017-12-30T03:02:33.024Z,4.87
2017-12-30T03:03:39.443Z,5.40
2017-12-30T03:04:45.648Z,5.22
2017-12-30T03:05:51.823Z,4.70
2017-12-30T03:06:57.980Z,5.15
2017-12-30T03:08:04.219Z,5.45
2017-12-30T03:09:10.687Z,4.90
2017-12-30T03:10:17.798Z,4.60
2017-12-30T03:11:24.002Z,3.83
2017-12-30T03:12:30.233Z,4.30
2017-12-30T03:13:36.406Z,4.40
2017-12-30T03:14:42.556Z,4.32
2017-12-30T03:15:48.754Z,4.45
2017-12-30T03:16:54.979Z,4.40
2017-12-30T03:18:01.224Z,3.72
2017-12-30T03:19:07.414Z,4.72
2017-12-30T03:20:13.589Z,4.30
2017-12-30T03:21:19.833Z,4.32
2017-12-30T03:22:25.710Z,4.25
2017-12-30T03:23:31.920Z,4.05
2017-12-30T03:24:38.165Z,3.83
2017-12-30T03:25:50.374Z,4.15
2017-12-30T03:26:56.279Z,4.05
2017-12-30T03:28:02.489Z,3.97
2017-12-30T03:29:08.815Z,4.50
2017-12-30T03:30:14.993Z,4.15
2017-12-30T03:32:32.490Z,3.72
2017-12-30T03:33:38.665Z,4.03
2017-12-30T03:34:44.900Z,4.20
2017-12-30T03:35:51.131Z,4.30
2017-12-30T03:36:58.248Z,4.07
2017-12-30T03:38:04.458Z,4.60
2017-12-30T03:39:10.723Z,4.85
2017-12-30T03:40:16.930Z,4.47
2017-12-30T03:41:23.334Z,3.90
2017-12-30T03:42:29.506Z,4.30
2017-12-30T03:43:35.698Z,4.05
2017-12-30T03:44:41.928Z,3.50
2017-12-30T03:45:48.171Z,3.92
2017-12-30T03:46:54.140Z,4.28
2017-12-30T03:48:00.364Z,4.37
2017-12-30T03:49:06.606Z,4.68
2017-12-30T03:50:12.778Z,4.65
2017-12-30T03:51:19.012Z,4.72
2017-12-30T03:52:25.414Z,4.10
2017-12-30T03:53:31.606Z,5.22
2017-12-30T03:54:37.754Z,4.57
2017-12-30T03:55:43.916Z,5.30
2017-12-30T03:56:50.102Z,5.60
2017-12-30T03:57:56.329Z,5.68
2017-12-30T03:59:02.522Z,5.65
2017-12-30T04:00:15.402Z,5.47
2017-12-30T04:01:21.593Z,5.80
2017-12-30T04:02:27.788Z,5.93
2017-12-30T04:03:34.023Z,7.00
2017-12-30T04:04:40.197Z,5.55
2017-12-30T04:05:46.110Z,5.68
2017-12-30T04:06:52.293Z,6.45
2017-12-30T04:07:58.552Z,5.90
2017-12-30T04:09:06.595Z,5.80
2017-12-30T04:10:12.832Z,5.90
2017-12-30T04:11:18.996Z,5.85
2017-12-30T04:12:25.181Z,6.25
2017-12-30T04:13:31.463Z,5.55
2017-12-30T04:14:37.668Z,4.85
2017-12-30T04:15:43.860Z,4.97
2017-12-30T04:16:50.122Z,5.72
2017-12-30T04:17:56.348Z,5.60
2017-12-30T04:19:02.667Z,5.50
2017-12-30T04:20:08.840Z,5.20
2017-12-30T04:21:15.020Z,5.40
2017-12-30T04:22:20.860Z,4.75
2017-12-30T04:23:27.078Z,4.28
2017-12-30T04:24:33.260Z,5.20
2017-12-30T04:25:39.432Z,5.30
2017-12-30T04:26:45.625Z,4.95
2017-12-30T04:27:51.814Z,4.70
2017-12-30T04:28:58.225Z,4.97
2017-12-30T04:30:04.393Z,5.10
2017-12-30T04:31:10.658Z,4.82
2017-12-30T04:32:16.842Z,5.15
2017-12-30T04:33:23.061Z,5.25
2017-12-30T04:34:29.545Z,5.15
2017-12-30T04:35:35.709Z,5.10
2017-12-30T04:36:41.956Z,5.37
2017-12-30T04:37:48.334Z,5.32
2017-12-30T04:38:54.587Z,6.35
2017-12-30T04:40:00.853Z,5.25
2017-12-30T04:41:07.045Z,6.00
2017-12-30T04:42:13.197Z,5.07
2017-12-30T04:43:25.215Z,4.62
2017-12-30T04:44:31.422Z,5.25
2017-12-30T04:45:37.844Z,4.72
2017-12-30T04:46:44.022Z,6.12
2017-12-30T04:47:50.264Z,4.97
2017-12-30T04:48:56.651Z,5.10
2017-12-30T04:50:02.859Z,4.90
2017-12-30T04:51:09.042Z,4.93
2017-12-30T04:52:15.267Z,5.45
2017-12-30T04:53:21.462Z,5.05
2017-12-30T04:54:27.649Z,5.57
2017-12-30T04:55:33.863Z,5.05
2017-12-30T04:56:40.063Z,5.05
2017-12-30T04:57:46.283Z,5.68
2017-12-30T04:58:52.458Z,5.05
2017-12-30T04:59:58.627Z,5.35
2017-12-30T05:01:06.778Z,4.57
2017-12-30T05:02:12.975Z,5.00
2017-12-30T05:03:18.936Z,6.00
2017-12-30T05:04:25.111Z,5.30
2017-12-30T05:05:32.450Z,5.18
2017-12-30T05:06:38.334Z,5.32
2017-12-30T05:07:44.532Z,5.32
2017-12-30T05:08:50.793Z,5.05
2017-12-30T05:09:56.708Z,5.60
2017-12-30T05:11:02.883Z,5.37
2017-12-30T05:12:09.086Z,5.20
2017-12-30T05:13:15.250Z,5.25
2017-12-30T05:14:21.187Z,4.97
2017-12-30T05:15:27.391Z,6.28
2017-12-30T05:16:33.662Z,5.62
2017-12-30T05:17:39.967Z,5.32
2017-12-30T05:18:46.223Z,5.15
2017-12-30T05:19:52.393Z,5.68
2017-12-30T05:20:58.563Z,5.05
2017-12-30T05:22:04.748Z,5.95
2017-12-30T05:23:10.707Z,5.10
2017-12-30T05:24:16.883Z,5.85
2017-12-30T05:25:23.139Z,5.82
2017-12-30T05:26:29.292Z,5.43
2017-12-30T05:27:35.482Z,6.60
2017-12-30T05:28:41.659Z,6.25
2017-12-30T05:29:47.865Z,6.40
2017-12-30T05:30:54.033Z,7.90
2017-12-30T05:32:00.301Z,6.40
2017-12-30T05:33:06.454Z,8.05
2017-12-30T05:34:13.637Z,6.70
2017-12-30T05:35:19.899Z,7.12
2017-12-30T05:36:25.854Z,6.80
2017-12-30T05:37:32.024Z,7.35
2017-12-30T05:38:38.222Z,7.53
2017-12-30T05:39:44.371Z,8.27
2017-12-30T05:40:50.545Z,7.60
2017-12-30T05:41:56.763Z,8.20
2017-12-30T05:43:02.991Z,7.68
2017-12-30T05:44:09.183Z,7.22
2017-12-30T05:45:15.372Z,7.60
2017-12-30T05:46:21.593Z,8.02
2017-12-30T05:47:27.822Z,7.68
2017-12-30T05:48:34.067Z,8.10
2017-12-30T05:49:40.283Z,7.43
2017-12-30T05:50:46.435Z,7.28
2017-12-30T05:51:52.617Z,7.43
2017-12-30T05:52:58.842Z,7.60
2017-12-30T05:54:05.156Z,7.12
2017-12-30T05:55:11.411Z,6.85
2017-12-30T05:56:17.619Z,7.55
2017-12-30T05:57:23.874Z,7.55
2017-12-30T05:58:30.040Z,6.75
2017-12-30T05:59:36.199Z,7.35
2017-12-30T06:00:42.446Z,7.35
2017-12-30T06:01:48.662Z,6.70
2017-12-30T06:02:54.983Z,7.62
2017-12-30T06:04:01.138Z,7.50
2017-12-30T06:05:07.464Z,6.60
2017-12-30T06:06:13.652Z,6.47
2017-12-30T06:07:19.850Z,6.70
2017-12-30T06:08:26.044Z,6.90
2017-12-30T06:09:32.329Z,6.30
2017-12-30T06:10:38.505Z,5.47
2017-12-30T06:11:44.698Z,6.32
2017-12-30T06:12:53.758Z,5.47
2017-12-30T06:14:00.024Z,5.90
2017-12-30T06:15:06.305Z,5.50
2017-12-30T06:16:12.556Z,5.22
2017-12-30T06:17:18.724Z,5.97
2017-12-30T06:18:24.979Z,5.32
2017-12-30T06:19:31.182Z,5.50
2017-12-30T06:20:37.357Z,5.97
2017-12-30T06:21:43.523Z,5.32
2017-12-30T06:22:53.752Z,5.50
2017-12-30T06:23:59.652Z,5.40
2017-12-30T06:25:05.806Z,5.78
2017-12-30T06:26:11.616Z,5.72
2017-12-30T06:27:17.779Z,6.18
2017-12-30T06:28:23.994Z,6.20
2017-12-30T06:29:30.162Z,6.40
2017-12-30T06:30:36.305Z,5.50
2017-12-30T06:31:42.516Z,7.03
2017-12-30T06:32:48.714Z,6.43
2017-12-30T06:33:54.957Z,5.80
2017-12-30T06:35:01.213Z,6.78
2017-12-30T06:36:09.292Z,5.78
2017-12-30T06:37:15.443Z,6.10
2017-12-30T06:38:21.627Z,5.87
2017-12-30T06:39:27.822Z,6.85
2017-12-30T06:40:33.990Z,6.28
2017-12-30T06:41:40.150Z,7.03
2017-12-30T06:42:46.343Z,6.45
2017-12-30T06:43:52.490Z,6.12
2017-12-30T06:44:58.679Z,6.95
2017-12-30T06:46:04.914Z,6.57
2017-12-30T06:47:11.128Z,6.75
2017-12-30T06:48:17.156Z,6.45
2017-12-30T06:49:23.391Z,7.22
2017-12-30T06:50:29.597Z,6.60
2017-12-30T06:51:35.553Z,5.68
2017-12-30T06:52:41.770Z,6.40
2017-12-30T06:53:48.118Z,6.60
2017-12-30T06:54:54.309Z,6.37
2017-12-30T06:56:00.466Z,6.70
2017-12-30T06:57:06.619Z,6.45
2017-12-30T06:58:12.789Z,6.32
2017-12-30T06:59:19.057Z,7.15
2017-12-30T07:00:25.290Z,6.00
2017-12-30T07:01:31.457Z,7.35
2017-12-30T07:02:37.610Z,6.15
2017-12-30T07:03:43.776Z,6.45
2017-12-30T07:04:49.932Z,7.47
2017-12-30T07:05:56.174Z,5.70
2017-12-30T07:07:02.366Z,5.90
2017-12-30T07:08:08.513Z,6.43
2017-12-30T07:09:14.739Z,5.57
2017-12-30T07:10:26.972Z,6.25
2017-12-30T07:11:33.158Z,6.03
2017-12-30T07:12:43.351Z,6.18
2017-12-30T07:13:49.532Z,6.20
2017-12-30T07:14:55.730Z,6.12
2017-12-30T07:16:01.944Z,5.80
2017-12-30T07:17:08.117Z,6.10
2017-12-30T07:18:14.336Z,6.25
2017-12-30T07:19:20.715Z,5.78
2017-12-30T07:20:26.894Z,5.53
2017-12-30T07:21:33.065Z,5.70
2017-12-30T07:22:39.247Z,6.20
2017-12-30T07:23:45.434Z,6.37
2017-12-30T07:24:51.612Z,5.95
2017-12-30T07:25:57.782Z,5.57
2017-12-30T07:27:03.996Z,5.93
2017-12-30T07:28:10.156Z,5.47
2017-12-30T07:29:17.386Z,5.70
2017-12-30T07:30:23.243Z,6.22
2017-12-30T07:31:29.402Z,5.75
2017-12-30T07:32:35.624Z,6.05
2017-12-30T07:33:42.408Z,5.65
2017-12-30T07:34:49.214Z,6.18
2017-12-30T07:35:57.427Z,5.50
2017-12-30T07:37:04.284Z,6.85
2017-12-30T07:38:12.034Z,6.55
2017-12-30T07:39:18.643Z,6.10
2017-12-30T07:40:25.388Z,7.15
2017-12-30T07:41:32.463Z,8.30
2017-12-30T07:42:39.277Z,7.60
2017-12-30T07:43:46.144Z,8.02
2017-12-30T07:44:53.507Z,7.95
2017-12-30T07:46:00.476Z,7.80
2017-12-30T07:47:07.614Z,8.80
2017-12-30T07:48:14.273Z,8.90
2017-12-30T07:49:20.605Z,8.50
2017-12-30T07:50:30.719Z,7.28
2017-12-30T07:51:38.715Z,7.10
2017-12-30T07:52:44.930Z,7.30
2017-12-30T07:53:51.288Z,6.60
2017-12-30T07:54:57.873Z,5.95
2017-12-30T07:56:04.452Z,6.40
2017-12-30T07:57:10.964Z,7.03
2017-12-30T07:58:17.934Z,6.90
2017-12-30T07:59:25.680Z,6.22
2017-12-30T08:00:32.138Z,6.05
2017-12-30T08:01:38.446Z,6.00
2017-12-30T08:02:44.667Z,6.07
2017-12-30T08:03:51.016Z,6.68
2017-12-30T08:04:57.245Z,6.70
2017-12-30T08:06:03.784Z,6.37
2017-12-30T08:07:10.101Z,5.55
2017-12-30T08:08:16.298Z,6.00
2017-12-30T08:09:22.608Z,5.45
2017-12-30T08:10:29.334Z,5.53
2017-12-30T08:11:35.978Z,5.47
2017-12-30T08:12:42.369Z,5.80
2017-12-30T08:13:49.272Z,5.20
2017-12-30T08:14:56.224Z,4.37
2017-12-30T08:16:02.645Z,4.97
2017-12-30T08:17:10.050Z,5.20
2017-12-30T08:18:16.101Z,4.03
2017-12-30T08:19:23.675Z,4.30
2017-12-30T08:20:30.116Z,4.85
2017-12-30T08:21:37.320Z,5.22
2017-12-30T08:22:45.189Z,4.47
2017-12-30T08:23:51.481Z,4.65
2017-12-30T08:24:58.064Z,5.10
2017-12-30T08:26:04.407Z,5.40
2017-12-30T08:27:10.998Z,6.70
2017-12-30T08:28:18.416Z,5.30
2017-12-30T08:29:24.858Z,5.00
2017-12-30T08:30:31.230Z,5.47
2017-12-30T08:31:37.591Z,6.22
2017-12-30T08:32:44.862Z,5.40
2017-12-30T08:33:51.585Z,5.78
2017-12-30T08:34:57.869Z,5.37
2017-12-30T08:36:04.430Z,5.15
2017-12-30T08:37:11.059Z,5.35
2017-12-30T08:38:17.622Z,4.60
2017-12-30T08:39:23.815Z,4.50
2017-12-30T08:40:30.885Z,4.60
2017-12-30T08:41:37.147Z,4.35
2017-12-30T08:42:43.304Z,4.45
2017-12-30T08:43:49.487Z,4.25
2017-12-30T08:44:55.654Z,4.40
2017-12-30T08:46:01.913Z,4.43
2017-12-30T08:47:09.461Z,4.35
2017-12-30T08:48:16.581Z,4.65
2017-12-30T08:49:22.976Z,4.65
2017-12-30T08:50:38.229Z,4.03
2017-12-30T08:51:44.644Z,4.75
2017-12-30T08:52:54.890Z,3.97
2017-12-30T08:54:02.801Z,4.45
2017-12-30T08:55:10.635Z,4.25
2017-12-30T08:56:17.120Z,4.30
2017-12-30T08:57:24.993Z,4.25
2017-12-30T08:58:32.556Z,5.45
2017-12-30T08:59:39.201Z,4.12
2017-12-30T09:00:46.010Z,4.53
2017-12-30T09:01:52.853Z,4.25
2017-12-30T09:02:59.844Z,3.87
2017-12-30T09:04:06.689Z,3.40
2017-12-30T09:05:14.736Z,3.65
2017-12-30T09:06:21.395Z,3.78
2017-12-30T09:07:28.587Z,3.47
2017-12-30T09:08:34.813Z,4.00
2017-12-30T09:09:42.442Z,3.47
2017-12-30T09:10:50.275Z,3.80
2017-12-30T09:11:58.316Z,2.97
2017-12-30T09:13:05.834Z,3.40
2017-12-30T09:14:12.275Z,3.67
2017-12-30T09:15:20.874Z,3.83
2017-12-30T09:16:27.561Z,3.75
2017-12-30T09:17:34.070Z,3.80
2017-12-30T09:18:40.685Z,3.90
2017-12-30T09:19:47.321Z,4.30
2017-12-30T09:20:54.081Z,3.75
2017-12-30T09:22:01.194Z,3.55
2017-12-30T09:23:09.257Z,4.00
2017-12-30T09:24:16.807Z,3.70
2017-12-30T09:25:23.447Z,3.30
2017-12-30T09:26:30.017Z,3.40
2017-12-30T09:27:38.469Z,3.15
2017-12-30T09:28:45.355Z,3.42
2017-12-30T09:29:53.345Z,4.37
2017-12-30T09:30:59.718Z,2.85
2017-12-30T09:32:06.044Z,3.45
2017-12-30T09:33:12.611Z,3.03
2017-12-30T09:34:21.265Z,3.97
2017-12-30T09:35:27.958Z,3.35
2017-12-30T09:36:34.482Z,3.47
2017-12-30T09:37:41.391Z,3.22
2017-12-30T09:38:47.969Z,3.60
2017-12-30T09:39:55.121Z,3.25
2017-12-30T09:41:01.731Z,3.60
2017-12-30T09:42:09.406Z,3.10
2017-12-30T09:43:15.770Z,3.37
2017-12-30T09:44:22.246Z,3.22
2017-12-30T09:45:30.385Z,3.75
2017-12-30T09:46:36.923Z,2.97
2017-12-30T09:47:45.121Z,3.45
2017-12-30T09:48:51.447Z,3.50
2017-12-30T09:50:01.589Z,3.65
2017-12-30T09:51:08.471Z,3.03
2017-12-30T09:52:15.438Z,3.85
2017-12-30T09:53:22.319Z,3.00
2017-12-30T09:54:28.506Z,3.45
2017-12-30T09:55:35.399Z,3.20
2017-12-30T09:56:42.529Z,3.58
2017-12-30T09:57:49.587Z,3.25
2017-12-30T09:58:56.903Z,3.40
2017-12-30T10:00:03.756Z,3.80
2017-12-30T10:01:10.451Z,3.87
2017-12-30T10:02:16.843Z,3.35
2017-12-30T10:03:23.453Z,4.62
2017-12-30T10:04:30.790Z,3.92
2017-12-30T10:05:37.007Z,4.40
2017-12-30T10:06:43.657Z,3.70
2017-12-30T10:07:49.977Z,3.70
2017-12-30T10:08:56.381Z,3.55
2017-12-30T10:10:03.163Z,3.12
2017-12-30T10:11:09.773Z,4.30
2017-12-30T10:12:16.544Z,3.70
2017-12-30T10:13:23.629Z,3.85
2017-12-30T10:14:30.081Z,3.45
2017-12-30T10:15:36.688Z,4.18
2017-12-30T10:16:43.034Z,4.28
2017-12-30T10:17:49.310Z,3.65
2017-12-30T10:18:56.105Z,2.90
2017-12-30T10:20:04.777Z,3.10
2017-12-30T10:21:11.813Z,3.30
2017-12-30T10:22:18.714Z,3.50
2017-12-30T10:23:25.085Z,3.08
2017-12-30T10:24:32.585Z,4.30
2017-12-30T10:25:38.932Z,3.70
2017-12-30T10:26:45.807Z,3.60
2017-12-30T10:27:52.424Z,4.55
2017-12-30T10:28:59.260Z,3.67
2017-12-30T10:30:05.976Z,4.20
2017-12-30T10:31:12.111Z,4.05
2017-12-30T10:32:18.422Z,3.80
2017-12-30T10:33:26.594Z,3.35
2017-12-30T10:34:34.575Z,3.53
2017-12-30T10:35:44.525Z,3.17
2017-12-30T10:36:51.072Z,3.67
2017-12-30T10:37:59.374Z,4.20
2017-12-30T10:39:05.560Z,3.37
2017-12-30T10:40:12.200Z,3.67
2017-12-30T10:41:18.278Z,3.97
2017-12-30T10:42:26.119Z,4.47
2017-12-30T10:43:33.438Z,4.93
2017-12-30T10:44:40.223Z,3.55
2017-12-30T10:45:47.627Z,3.85
2017-12-30T10:46:54.954Z,4.07
2017-12-30T10:48:01.432Z,3.45
2017-12-30T10:49:08.021Z,3.30
2017-12-30T10:50:14.553Z,4.07
2017-12-30T10:51:20.963Z,4.32
2017-12-30T10:52:27.844Z,3.40
2017-12-30T10:53:35.739Z,3.78
2017-12-30T10:54:43.680Z,3.92
2017-12-30T10:55:50.150Z,4.10
2017-12-30T10:57:00.110Z,4.03
2017-12-30T10:58:07.026Z,4.28
2017-12-30T10:59:13.714Z,4.10
2017-12-30T11:00:20.526Z,4.43
2017-12-30T11:01:26.868Z,3.62
2017-12-30T11:02:33.128Z,3.67
2017-12-30T11:03:39.440Z,5.20
2017-12-30T11:04:45.668Z,4.03
2017-12-30T11:05:51.988Z,4.20
2017-12-30T11:06:58.986Z,4.30
2017-12-30T11:08:06.352Z,3.25
2017-12-30T11:09:14.741Z,4.70
2017-12-30T11:10:23.503Z,4.30
2017-12-30T11:11:32.594Z,4.30
2017-12-30T11:12:41.235Z,4.40
2017-12-30T11:13:48.078Z,4.53
2017-12-30T11:14:55.260Z,4.32
2017-12-30T11:16:02.375Z,4.20
2017-12-30T11:17:09.973Z,4.70
2017-12-30T11:18:18.810Z,3.70
2017-12-30T11:19:26.147Z,4.72
2017-12-30T11:20:33.515Z,3.62
2017-12-30T11:21:40.734Z,4.37
2017-12-30T11:22:47.625Z,3.87
2017-12-30T11:23:54.969Z,3.45
2017-12-30T11:25:02.345Z,3.85
2017-12-30T11:26:10.014Z,4.20
2017-12-30T11:27:17.315Z,4.53
2017-12-30T11:28:26.751Z,3.45
2017-12-30T11:29:34.414Z,3.35
2017-12-30T11:30:43.356Z,2.95
2017-12-30T11:31:51.355Z,4.12
2017-12-30T11:32:58.215Z,3.80
2017-12-30T11:34:04.492Z,3.35
2017-12-30T11:35:10.695Z,3.03
2017-12-30T11:36:16.906Z,3.70
2017-12-30T11:37:23.170Z,3.72
2017-12-30T11:38:29.399Z,3.78
2017-12-30T11:39:35.647Z,3.00
2017-12-30T11:40:41.942Z,2.95
2017-12-30T11:41:49.205Z,2.60
2017-12-30T11:42:55.419Z,3.03
2017-12-30T11:44:01.690Z,3.35
2017-12-30T11:45:07.918Z,2.95
2017-12-30T11:46:14.372Z,3.10
2017-12-30T11:47:20.660Z,2.60
2017-12-30T11:48:26.970Z,2.67
2017-12-30T11:49:33.233Z,2.35
2017-12-30T11:50:39.495Z,2.47
2017-12-30T11:51:45.717Z,1.95
2017-12-30T11:52:51.957Z,2.20
2017-12-30T11:53:58.205Z,2.60
2017-12-30T11:55:04.630Z,2.30
2017-12-30T11:56:10.966Z,3.10
2017-12-30T11:57:17.141Z,2.50
2017-12-30T11:58:22.990Z,2.00
2017-12-30T11:59:29.556Z,2.00
2017-12-30T12:00:35.657Z,1.87
2017-12-30T12:01:41.927Z,2.25
2017-12-30T12:02:48.196Z,1.80
2017-12-30T12:03:54.477Z,2.10
2017-12-30T12:05:00.854Z,2.60
2017-12-30T12:06:07.141Z,3.45
2017-12-30T12:07:13.403Z,3.50
2017-12-30T12:08:19.636Z,2.47
2017-12-30T12:09:25.891Z,4.40
2017-12-30T12:10:32.184Z,2.40
2017-12-30T12:11:38.477Z,2.70
2017-12-30T12:12:44.696Z,2.20
2017-12-30T12:13:50.949Z,2.25
2017-12-30T12:14:57.183Z,2.47
2017-12-30T12:16:03.414Z,2.70
2017-12-30T12:17:09.634Z,2.10
2017-12-30T12:18:15.841Z,2.35
2017-12-30T12:19:22.120Z,2.35
2017-12-30T12:20:28.513Z,2.17
2017-12-30T12:21:35.068Z,2.42
2017-12-30T12:22:41.596Z,2.65
2017-12-30T12:23:47.953Z,2.25
2017-12-30T12:24:54.279Z,2.50
2017-12-30T12:26:00.554Z,2.40
2017-12-30T12:27:06.417Z,2.95
2017-12-30T12:28:12.721Z,2.60
2017-12-30T12:29:18.934Z,3.20
2017-12-30T12:30:25.306Z,2.95
2017-12-30T12:31:31.342Z,2.53
2017-12-30T12:32:37.577Z,3.20
2017-12-30T12:33:43.826Z,2.85
2017-12-30T12:34:50.056Z,2.72
2017-12-30T12:35:56.360Z,2.47
2017-12-30T12:37:02.641Z,3.10
2017-12-30T12:38:08.861Z,3.10
2017-12-30T12:39:15.130Z,3.28
2017-12-30T12:40:21.344Z,2.65
2017-12-30T12:41:28.061Z,2.62
2017-12-30T12:42:34.426Z,2.83
2017-12-30T12:43:40.778Z,2.37
2017-12-30T12:44:47.002Z,3.00
2017-12-30T12:45:53.223Z,2.60
2017-12-30T12:46:59.495Z,3.72
2017-12-30T12:48:06.727Z,3.08
2017-12-30T12:49:13.033Z,2.50
2017-12-30T12:50:19.712Z,2.60
2017-12-30T12:51:25.980Z,2.70
2017-12-30T12:52:32.273Z,2.60
2017-12-30T12:53:38.548Z,2.90
2017-12-30T12:54:44.511Z,3.78
2017-12-30T12:55:50.721Z,2.87
2017-12-30T12:56:57.428Z,2.87
2017-12-30T12:58:03.712Z,2.70
2017-12-30T12:59:09.939Z,2.70
2017-12-30T13:00:16.211Z,2.53
2017-12-30T13:01:22.215Z,2.75
2017-12-30T13:02:28.422Z,2.62
2017-12-30T13:03:34.645Z,2.20
2017-12-30T13:04:40.888Z,2.33
2017-12-30T13:05:47.148Z,2.92
2017-12-30T13:06:53.409Z,2.15
2017-12-30T13:07:59.825Z,2.67
2017-12-30T13:09:05.193Z,2.78
2017-12-30T13:10:11.481Z,2.40
2017-12-30T13:11:17.836Z,2.72
2017-12-30T13:12:24.276Z,2.62
2017-12-30T13:13:30.486Z,2.45
2017-12-30T13:14:36.756Z,2.45
2017-12-30T13:15:43.116Z,2.37
2017-12-30T13:16:49.356Z,2.78
2017-12-30T13:17:55.635Z,2.67
2017-12-30T13:19:01.946Z,2.00
2017-12-30T13:20:08.372Z,2.20
2017-12-30T13:21:14.902Z,1.90
2017-12-30T13:22:21.163Z,2.05
2017-12-30T13:23:27.378Z,2.25
2017-12-30T13:24:34.545Z,2.10
2017-12-30T13:25:41.060Z,2.35
2017-12-30T13:26:47.653Z,2.35
2017-12-30T13:27:53.909Z,1.83
2017-12-30T13:29:00.432Z,2.03
2017-12-30T13:30:06.673Z,2.17
2017-12-30T13:31:12.905Z,1.80
2017-12-30T13:32:19.196Z,2.00
2017-12-30T13:33:25.414Z,1.77
2017-12-30T13:34:31.764Z,2.33
2017-12-30T13:35:38.031Z,1.95
2017-12-30T13:36:43.946Z,2.25
2017-12-30T13:37:50.199Z,1.80
2017-12-30T13:38:56.507Z,2.28
2017-12-30T13:40:02.747Z,1.45
2017-12-30T13:41:09.538Z,1.90
2017-12-30T13:42:16.008Z,1.62
2017-12-30T13:43:22.257Z,1.73
2017-12-30T13:44:28.498Z,2.70
2017-12-30T13:45:34.763Z,1.45
2017-12-30T13:46:41.021Z,1.95
2017-12-30T13:47:47.245Z,1.67
2017-12-30T13:48:53.546Z,1.60
2017-12-30T13:49:59.583Z,1.73
2017-12-30T13:51:05.842Z,1.70
2017-12-30T13:52:12.302Z,2.10
2017-12-30T13:53:18.540Z,1.77
2017-12-30T13:54:27.965Z,2.08
2017-12-30T13:55:34.266Z,1.75
2017-12-30T13:56:40.540Z,1.90
2017-12-30T13:57:46.809Z,2.10
2017-12-30T13:58:53.044Z,1.85
2017-12-30T13:59:59.346Z,1.80
2017-12-30T14:01:05.914Z,1.80
2017-12-30T14:02:12.168Z,2.12
2017-12-30T14:03:18.504Z,2.00
2017-12-30T14:04:24.814Z,1.80
2017-12-30T14:05:31.085Z,2.22
2017-12-30T14:06:37.349Z,2.72
2017-12-30T14:07:43.664Z,2.12
2017-12-30T14:08:50.071Z,1.70
2017-12-30T14:09:56.531Z,1.75
2017-12-30T14:11:02.778Z,1.55
2017-12-30T14:12:09.122Z,2.08
2017-12-30T14:13:15.457Z,1.83
2017-12-30T14:14:21.790Z,1.50
2017-12-30T14:15:27.982Z,1.40
2017-12-30T14:16:34.223Z,1.70
2017-12-30T14:17:40.443Z,1.10
2017-12-30T14:18:47.445Z,1.48
2017-12-30T14:19:53.749Z,1.92
2017-12-30T14:21:00.212Z,1.20
2017-12-30T14:22:06.404Z,1.35
2017-12-30T14:23:12.912Z,1.25
2017-12-30T14:24:19.101Z,1.48
2017-12-30T14:25:25.409Z,1.80
2017-12-30T14:26:31.602Z,1.60
2017-12-30T14:27:37.878Z,1.17
2017-12-30T14:28:44.081Z,1.17
2017-12-30T14:29:50.251Z,1.30
2017-12-30T14:30:56.478Z,1.30
2017-12-30T14:32:02.661Z,1.00
2017-12-30T14:33:08.824Z,1.00
2017-12-30T14:34:15.306Z,1.40
2017-12-30T14:35:21.501Z,1.35
2017-12-30T14:36:27.667Z,1.20
2017-12-30T14:37:34.150Z,1.12
2017-12-30T14:38:40.457Z,1.10
2017-12-30T14:39:46.660Z,0.93
2017-12-30T14:40:52.943Z,1.10
2017-12-30T14:41:59.360Z,0.95
2017-12-30T14:43:05.538Z,0.98
2017-12-30T14:44:13.439Z,0.88
2017-12-30T14:45:19.649Z,0.80
2017-12-30T14:46:25.841Z,0.90
2017-12-30T14:47:32.591Z,0.85